sensor_id;sensor_type;location;lat;lon;timestamp;pressure;altitude;pressure_sealevel;temperature;humidity
43147;BME280;28752;48.266;7.402;2023-06-14T00:00:34;98794.78;;;20.08;35.32
43147;BME280;28752;48.266;7.402;2023-06-14T00:03:00;98829.81;;;20.20;35.65
43147;BME280;28752;48.266;7.402;2023-06-14T00:05:25;98831.91;;;20.18;35.83
43147;BME280;28752;48.266;7.402;2023-06-14T00:07:51;98830.75;;;20.07;36.35
43147;BME280;28752;48.266;7.402;2023-06-14T00:10:18;98815.69;;;19.87;36.85
43147;BME280;28752;48.266;7.402;2023-06-14T00:12:44;98818.81;;;19.84;37.30
43147;BME280;28752;48.266;7.402;2023-06-14T00:15:09;98823.41;;;19.77;37.38
43147;BME280;28752;48.266;7.402;2023-06-14T00:17:36;98826.19;;;19.64;37.81
43147;BME280;28752;48.266;7.402;2023-06-14T00:20:02;98824.16;;;19.59;37.96
43147;BME280;28752;48.266;7.402;2023-06-14T00:22:28;98828.97;;;19.50;38.13
43147;BME280;28752;48.266;7.402;2023-06-14T00:24:56;98820.56;;;19.40;38.66
43147;BME280;28752;48.266;7.402;2023-06-14T00:27:22;98820.41;;;19.35;38.90
43147;BME280;28752;48.266;7.402;2023-06-14T00:29:47;98825.00;;;19.28;38.73
43147;BME280;28752;48.266;7.402;2023-06-14T00:32:13;98818.31;;;19.12;39.02
43147;BME280;28752;48.266;7.402;2023-06-14T00:34:38;98819.94;;;19.13;39.35
43147;BME280;28752;48.266;7.402;2023-06-14T00:37:04;98821.00;;;19.05;39.44
43147;BME280;28752;48.266;7.402;2023-06-14T00:39:29;98822.16;;;18.91;39.68
43147;BME280;28752;48.266;7.402;2023-06-14T00:41:54;98820.50;;;18.83;39.91
43147;BME280;28752;48.266;7.402;2023-06-14T00:44:20;98820.75;;;18.75;40.14
43147;BME280;28752;48.266;7.402;2023-06-14T00:46:46;98828.59;;;18.70;40.30
43147;BME280;28752;48.266;7.402;2023-06-14T00:49:15;98832.22;;;18.43;41.31
43147;BME280;28752;48.266;7.402;2023-06-14T00:51:42;98828.75;;;18.36;41.61
43147;BME280;28752;48.266;7.402;2023-06-14T00:54:07;98821.13;;;18.33;41.59
43147;BME280;28752;48.266;7.402;2023-06-14T00:56:35;98835.56;;;18.25;41.93
43147;BME280;28752;48.266;7.402;2023-06-14T00:59:00;98836.63;;;18.18;42.16
43147;BME280;28752;48.266;7.402;2023-06-14T01:01:27;98823.88;;;18.13;41.99
43147;BME280;28752;48.266;7.402;2023-06-14T01:03:53;98821.19;;;18.06;42.41
43147;BME280;28752;48.266;7.402;2023-06-14T01:10:14;98826.97;;;17.90;42.79
43147;BME280;28752;48.266;7.402;2023-06-14T01:12:49;98830.88;;;17.81;43.05
43147;BME280;28752;48.266;7.402;2023-06-14T01:15:16;98828.22;;;17.74;43.05
43147;BME280;28752;48.266;7.402;2023-06-14T01:17:42;98832.75;;;17.73;43.20
43147;BME280;28752;48.266;7.402;2023-06-14T01:20:11;98825.75;;;17.52;43.52
43147;BME280;28752;48.266;7.402;2023-06-14T01:22:51;98829.03;;;17.48;43.76
43147;BME280;28752;48.266;7.402;2023-06-14T01:25:17;98824.28;;;17.50;43.70
43147;BME280;28752;48.266;7.402;2023-06-14T01:27:46;98823.69;;;17.34;43.69
43147;BME280;28752;48.266;7.402;2023-06-14T01:30:12;98821.63;;;17.30;44.22
43147;BME280;28752;48.266;7.402;2023-06-14T01:32:37;98815.63;;;17.28;44.33
43147;BME280;28752;48.266;7.402;2023-06-14T01:35:03;98813.16;;;17.19;44.51
43147;BME280;28752;48.266;7.402;2023-06-14T01:37:29;98820.16;;;17.20;44.49
43147;BME280;28752;48.266;7.402;2023-06-14T01:39:55;98817.03;;;17.03;44.62
43147;BME280;28752;48.266;7.402;2023-06-14T01:42:22;98815.00;;;17.05;45.12
43147;BME280;28752;48.266;7.402;2023-06-14T01:44:48;98807.53;;;16.94;45.17
43147;BME280;28752;48.266;7.402;2023-06-14T01:47:16;98810.03;;;16.96;45.24
43147;BME280;28752;48.266;7.402;2023-06-14T01:49:41;98809.56;;;16.85;45.40
43147;BME280;28752;48.266;7.402;2023-06-14T01:52:06;98801.56;;;16.85;45.43
43147;BME280;28752;48.266;7.402;2023-06-14T01:54:34;98804.22;;;16.85;45.32
43147;BME280;28752;48.266;7.402;2023-06-14T01:57:03;98808.72;;;16.85;45.24
43147;BME280;28752;48.266;7.402;2023-06-14T01:59:28;98804.84;;;16.81;44.53
43147;BME280;28752;48.266;7.402;2023-06-14T02:01:53;98802.38;;;16.86;44.84
43147;BME280;28752;48.266;7.402;2023-06-14T02:04:19;98815.75;;;16.86;44.65
43147;BME280;28752;48.266;7.402;2023-06-14T02:06:44;98809.13;;;16.75;43.65
43147;BME280;28752;48.266;7.402;2023-06-14T02:09:10;98811.75;;;16.68;44.63
43147;BME280;28752;48.266;7.402;2023-06-14T02:11:35;98811.00;;;16.75;44.04
43147;BME280;28752;48.266;7.402;2023-06-14T02:14:00;98810.78;;;16.76;44.10
43147;BME280;28752;48.266;7.402;2023-06-14T02:16:26;98808.69;;;16.72;44.43
43147;BME280;28752;48.266;7.402;2023-06-14T02:18:53;98815.28;;;16.76;43.60
43147;BME280;28752;48.266;7.402;2023-06-14T02:21:19;98810.78;;;16.76;44.08
43147;BME280;28752;48.266;7.402;2023-06-14T02:23:44;98814.44;;;16.68;43.73
43147;BME280;28752;48.266;7.402;2023-06-14T02:26:10;98814.84;;;16.65;43.99
43147;BME280;28752;48.266;7.402;2023-06-14T02:28:35;98818.41;;;16.79;42.84
43147;BME280;28752;48.266;7.402;2023-06-14T02:31:00;98818.16;;;16.74;43.30
43147;BME280;28752;48.266;7.402;2023-06-14T02:33:26;98832.94;;;16.70;43.50
43147;BME280;28752;48.266;7.402;2023-06-14T02:35:51;98826.78;;;16.69;43.42
43147;BME280;28752;48.266;7.402;2023-06-14T02:38:17;98836.22;;;16.65;43.76
43147;BME280;28752;48.266;7.402;2023-06-14T02:40:43;98833.53;;;16.59;44.31
43147;BME280;28752;48.266;7.402;2023-06-14T02:43:08;98838.25;;;16.57;44.91
43147;BME280;28752;48.266;7.402;2023-06-14T02:45:34;98833.88;;;16.42;45.23
43147;BME280;28752;48.266;7.402;2023-06-14T02:47:59;98830.91;;;16.30;45.08
43147;BME280;28752;48.266;7.402;2023-06-14T02:50:25;98837.53;;;16.34;44.86
43147;BME280;28752;48.266;7.402;2023-06-14T02:52:51;98833.00;;;16.35;45.45
43147;BME280;28752;48.266;7.402;2023-06-14T02:55:17;98837.91;;;16.31;44.36
43147;BME280;28752;48.266;7.402;2023-06-14T02:57:42;98829.72;;;16.33;44.14
43147;BME280;28752;48.266;7.402;2023-06-14T03:00:09;98834.44;;;16.31;44.60
43147;BME280;28752;48.266;7.402;2023-06-14T03:02:38;98840.78;;;16.30;45.03
43147;BME280;28752;48.266;7.402;2023-06-14T03:05:03;98840.63;;;16.03;46.09
43147;BME280;28752;48.266;7.402;2023-06-14T03:07:31;98845.19;;;16.09;46.19
43147;BME280;28752;48.266;7.402;2023-06-14T03:09:57;98843.94;;;16.05;45.72
43147;BME280;28752;48.266;7.402;2023-06-14T03:12:23;98844.28;;;15.95;46.08
43147;BME280;28752;48.266;7.402;2023-06-14T03:14:48;98840.94;;;15.87;46.12
43147;BME280;28752;48.266;7.402;2023-06-14T03:17:16;98841.06;;;15.78;46.15
43147;BME280;28752;48.266;7.402;2023-06-14T03:19:42;98851.38;;;15.81;46.13
43147;BME280;28752;48.266;7.402;2023-06-14T03:22:08;98859.75;;;15.78;46.60
43147;BME280;28752;48.266;7.402;2023-06-14T03:24:33;98853.84;;;15.61;47.08
43147;BME280;28752;48.266;7.402;2023-06-14T03:27:02;98859.75;;;15.57;47.23
43147;BME280;28752;48.266;7.402;2023-06-14T03:29:27;98854.94;;;15.45;47.69
43147;BME280;28752;48.266;7.402;2023-06-14T03:32:00;98850.50;;;15.31;48.06
43147;BME280;28752;48.266;7.402;2023-06-14T03:34:25;98865.97;;;15.42;47.78
43147;BME280;28752;48.266;7.402;2023-06-14T03:36:51;98851.13;;;15.33;47.83
43147;BME280;28752;48.266;7.402;2023-06-14T03:39:16;98860.78;;;15.34;47.96
43147;BME280;28752;48.266;7.402;2023-06-14T03:41:42;98858.38;;;15.18;48.84
43147;BME280;28752;48.266;7.402;2023-06-14T03:44:07;98863.84;;;15.31;48.55
43147;BME280;28752;48.266;7.402;2023-06-14T03:46:32;98871.41;;;15.27;48.73
43147;BME280;28752;48.266;7.402;2023-06-14T03:48:58;98874.50;;;15.31;48.49
43147;BME280;28752;48.266;7.402;2023-06-14T03:51:23;98871.47;;;15.34;48.47
43147;BME280;28752;48.266;7.402;2023-06-14T03:53:50;98882.63;;;15.44;48.16
43147;BME280;28752;48.266;7.402;2023-06-14T03:56:15;98859.31;;;15.32;48.33
43147;BME280;28752;48.266;7.402;2023-06-14T03:58:41;98890.38;;;15.39;48.34
43147;BME280;28752;48.266;7.402;2023-06-14T04:01:06;98889.13;;;15.35;48.26
43147;BME280;28752;48.266;7.402;2023-06-14T04:03:32;98890.97;;;15.56;48.24
43147;BME280;28752;48.266;7.402;2023-06-14T04:05:58;98889.88;;;15.72;47.90
43147;BME280;28752;48.266;7.402;2023-06-14T04:08:25;98893.88;;;15.83;47.67
43147;BME280;28752;48.266;7.402;2023-06-14T04:10:50;98895.66;;;15.97;47.59
43147;BME280;28752;48.266;7.402;2023-06-14T04:13:15;98877.19;;;16.03;46.67
43147;BME280;28752;48.266;7.402;2023-06-14T04:15:42;98901.13;;;16.17;45.67
43147;BME280;28752;48.266;7.402;2023-06-14T04:18:09;98897.44;;;16.54;45.06
43147;BME280;28752;48.266;7.402;2023-06-14T04:20:34;98902.19;;;16.93;43.96
43147;BME280;28752;48.266;7.402;2023-06-14T04:23:11;98908.88;;;17.37;42.92
43147;BME280;28752;48.266;7.402;2023-06-14T04:25:37;98912.63;;;17.70;41.89
43147;BME280;28752;48.266;7.402;2023-06-14T04:28:03;98895.75;;;17.76;41.90
43147;BME280;28752;48.266;7.402;2023-06-14T04:30:28;98914.72;;;18.35;40.73
43147;BME280;28752;48.266;7.402;2023-06-14T04:32:56;98919.38;;;18.59;40.69
43147;BME280;28752;48.266;7.402;2023-06-14T04:35:22;98912.28;;;18.98;40.30
43147;BME280;28752;48.266;7.402;2023-06-14T04:37:49;98924.81;;;19.43;39.23
43147;BME280;28752;48.266;7.402;2023-06-14T04:40:14;98918.34;;;19.58;38.80
43147;BME280;28752;48.266;7.402;2023-06-14T04:42:40;98924.19;;;19.48;38.63
43147;BME280;28752;48.266;7.402;2023-06-14T04:45:06;98924.53;;;19.90;38.07
43147;BME280;28752;48.266;7.402;2023-06-14T04:47:32;98932.59;;;19.90;38.21
43147;BME280;28752;48.266;7.402;2023-06-14T04:49:59;98943.31;;;19.58;38.25
43147;BME280;28752;48.266;7.402;2023-06-14T04:52:25;98938.13;;;19.31;38.68
43147;BME280;28752;48.266;7.402;2023-06-14T04:54:52;98939.31;;;19.35;38.08
43147;BME280;28752;48.266;7.402;2023-06-14T04:57:17;98944.91;;;19.41;38.24
43147;BME280;28752;48.266;7.402;2023-06-14T04:59:47;98935.13;;;19.08;38.83
43147;BME280;28752;48.266;7.402;2023-06-14T05:02:12;98954.56;;;19.03;39.48
43147;BME280;28752;48.266;7.402;2023-06-14T05:04:38;98952.00;;;19.22;39.51
43147;BME280;28752;48.266;7.402;2023-06-14T05:07:07;98945.81;;;19.21;39.44
43147;BME280;28752;48.266;7.402;2023-06-14T05:09:32;98949.56;;;19.13;40.13
43147;BME280;28752;48.266;7.402;2023-06-14T05:11:58;98957.19;;;19.16;39.65
43147;BME280;28752;48.266;7.402;2023-06-14T05:14:25;98958.22;;;19.22;40.05
43147;BME280;28752;48.266;7.402;2023-06-14T05:16:51;98950.53;;;19.26;40.35
43147;BME280;28752;48.266;7.402;2023-06-14T05:19:16;98958.25;;;19.02;41.50
43147;BME280;28752;48.266;7.402;2023-06-14T05:21:43;98959.53;;;18.99;42.13
43147;BME280;28752;48.266;7.402;2023-06-14T05:24:08;98955.53;;;19.22;40.98
43147;BME280;28752;48.266;7.402;2023-06-14T05:26:34;98952.59;;;19.30;40.35
43147;BME280;28752;48.266;7.402;2023-06-14T05:29:00;98957.88;;;19.44;39.64
43147;BME280;28752;48.266;7.402;2023-06-14T05:31:26;98961.22;;;19.32;40.59
43147;BME280;28752;48.266;7.402;2023-06-14T05:33:53;98954.97;;;19.45;40.40
43147;BME280;28752;48.266;7.402;2023-06-14T05:36:19;98960.31;;;19.52;40.54
43147;BME280;28752;48.266;7.402;2023-06-14T05:38:46;98968.88;;;19.67;39.87
43147;BME280;28752;48.266;7.402;2023-06-14T05:41:12;98961.94;;;19.92;39.62
43147;BME280;28752;48.266;7.402;2023-06-14T05:43:37;98963.31;;;20.26;38.89
43147;BME280;28752;48.266;7.402;2023-06-14T05:46:03;98969.75;;;20.87;39.13
43147;BME280;28752;48.266;7.402;2023-06-14T05:48:29;98967.88;;;21.86;37.92
43147;BME280;28752;48.266;7.402;2023-06-14T05:50:55;98971.97;;;23.59;33.98
43147;BME280;28752;48.266;7.402;2023-06-14T05:53:20;98974.69;;;26.26;31.12
43147;BME280;28752;48.266;7.402;2023-06-14T05:55:46;98967.47;;;27.58;29.72
43147;BME280;28752;48.266;7.402;2023-06-14T05:58:11;98979.59;;;29.10;27.35
43147;BME280;28752;48.266;7.402;2023-06-14T06:00:38;98985.69;;;29.47;26.55
43147;BME280;28752;48.266;7.402;2023-06-14T06:03:04;98990.97;;;30.17;25.62
43147;BME280;28752;48.266;7.402;2023-06-14T06:05:29;98990.78;;;30.91;24.31
43147;BME280;28752;48.266;7.402;2023-06-14T06:07:55;98995.00;;;31.89;23.64
43147;BME280;28752;48.266;7.402;2023-06-14T06:10:21;98991.66;;;32.44;22.67
43147;BME280;28752;48.266;7.402;2023-06-14T06:12:46;98990.38;;;32.03;22.40
43147;BME280;28752;48.266;7.402;2023-06-14T06:15:13;98985.06;;;32.59;22.82
43147;BME280;28752;48.266;7.402;2023-06-14T06:17:39;99002.59;;;32.77;22.46
43147;BME280;28752;48.266;7.402;2023-06-14T06:20:05;98998.41;;;32.80;22.46
43147;BME280;28752;48.266;7.402;2023-06-14T06:22:33;98997.19;;;33.78;21.76
43147;BME280;28752;48.266;7.402;2023-06-14T06:24:59;98997.34;;;33.59;21.45
43147;BME280;28752;48.266;7.402;2023-06-14T06:27:24;99000.78;;;35.35;20.27
43147;BME280;28752;48.266;7.402;2023-06-14T06:29:49;98989.34;;;35.02;20.46
43147;BME280;28752;48.266;7.402;2023-06-14T06:32:16;98993.19;;;35.58;19.88
43147;BME280;28752;48.266;7.402;2023-06-14T06:34:42;99004.94;;;35.15;20.50
43147;BME280;28752;48.266;7.402;2023-06-14T06:37:07;99006.19;;;35.93;19.98
43147;BME280;28752;48.266;7.402;2023-06-14T06:39:33;98999.25;;;35.03;20.23
43147;BME280;28752;48.266;7.402;2023-06-14T06:41:58;99007.28;;;35.39;20.32
43147;BME280;28752;48.266;7.402;2023-06-14T06:44:24;99008.56;;;34.53;20.97
43147;BME280;28752;48.266;7.402;2023-06-14T06:46:49;99013.28;;;33.57;21.78
43147;BME280;28752;48.266;7.402;2023-06-14T06:49:14;99006.41;;;33.45;21.50
43147;BME280;28752;48.266;7.402;2023-06-14T06:51:43;99009.25;;;34.99;20.14
43147;BME280;28752;48.266;7.402;2023-06-14T06:54:10;99005.50;;;34.95;20.16
43147;BME280;28752;48.266;7.402;2023-06-14T06:56:35;99015.66;;;35.34;19.88
43147;BME280;28752;48.266;7.402;2023-06-14T06:59:01;99023.00;;;34.67;19.78
43147;BME280;28752;48.266;7.402;2023-06-14T07:01:26;99020.84;;;34.33;20.20
43147;BME280;28752;48.266;7.402;2023-06-14T07:03:54;99020.03;;;34.10;20.64
43147;BME280;28752;48.266;7.402;2023-06-14T07:06:19;99018.22;;;33.04;21.66
43147;BME280;28752;48.266;7.402;2023-06-14T07:08:45;99016.16;;;33.52;21.35
43147;BME280;28752;48.266;7.402;2023-06-14T07:11:13;99016.00;;;33.85;21.42
43147;BME280;28752;48.266;7.402;2023-06-14T07:13:38;99020.25;;;32.71;21.93
43147;BME280;28752;48.266;7.402;2023-06-14T07:16:04;99026.00;;;32.22;22.35
43147;BME280;28752;48.266;7.402;2023-06-14T07:18:29;99029.13;;;32.63;22.32
43147;BME280;28752;48.266;7.402;2023-06-14T07:20:55;99031.47;;;31.65;22.93
43147;BME280;28752;48.266;7.402;2023-06-14T07:23:22;99042.75;;;32.35;22.16
43147;BME280;28752;48.266;7.402;2023-06-14T07:25:47;99027.84;;;31.70;22.66
43147;BME280;28752;48.266;7.402;2023-06-14T07:28:13;99026.31;;;32.68;22.25
43147;BME280;28752;48.266;7.402;2023-06-14T07:30:38;99021.75;;;32.30;22.51
43147;BME280;28752;48.266;7.402;2023-06-14T07:33:03;99028.47;;;32.99;22.01
43147;BME280;28752;48.266;7.402;2023-06-14T07:35:29;99022.63;;;32.58;22.19
43147;BME280;28752;48.266;7.402;2023-06-14T07:37:54;99038.63;;;33.12;21.64
43147;BME280;28752;48.266;7.402;2023-06-14T07:40:20;99028.25;;;32.34;22.42
43147;BME280;28752;48.266;7.402;2023-06-14T07:42:46;99029.69;;;32.46;22.68
43147;BME280;28752;48.266;7.402;2023-06-14T07:45:13;99034.25;;;33.11;21.70
43147;BME280;28752;48.266;7.402;2023-06-14T07:47:39;99036.16;;;34.25;20.63
43147;BME280;28752;48.266;7.402;2023-06-14T07:50:05;99033.47;;;34.88;20.50
43147;BME280;28752;48.266;7.402;2023-06-14T07:52:30;99028.16;;;34.38;20.47
43147;BME280;28752;48.266;7.402;2023-06-14T07:54:56;99034.69;;;33.32;21.32
43147;BME280;28752;48.266;7.402;2023-06-14T07:57:22;99031.09;;;33.96;21.21
43147;BME280;28752;48.266;7.402;2023-06-14T07:59:47;99040.84;;;32.96;21.90
43147;BME280;28752;48.266;7.402;2023-06-14T08:02:14;99041.94;;;32.67;22.17
43147;BME280;28752;48.266;7.402;2023-06-14T08:04:39;99043.00;;;33.41;21.93
43147;BME280;28752;48.266;7.402;2023-06-14T08:07:05;99030.19;;;32.81;21.92
43147;BME280;28752;48.266;7.402;2023-06-14T08:09:31;99042.84;;;32.76;22.40
43147;BME280;28752;48.266;7.402;2023-06-14T08:11:56;99028.28;;;32.15;22.67
43147;BME280;28752;48.266;7.402;2023-06-14T08:14:21;99026.19;;;32.26;22.83
43147;BME280;28752;48.266;7.402;2023-06-14T08:16:47;99026.84;;;31.66;23.03
43147;BME280;28752;48.266;7.402;2023-06-14T08:19:13;99042.13;;;31.67;23.41
43147;BME280;28752;48.266;7.402;2023-06-14T08:21:38;99023.84;;;30.65;24.63
43147;BME280;28752;48.266;7.402;2023-06-14T08:24:04;99034.81;;;31.38;24.04
43147;BME280;28752;48.266;7.402;2023-06-14T08:26:30;99037.66;;;30.16;25.14
43147;BME280;28752;48.266;7.402;2023-06-14T08:28:55;99027.69;;;29.95;25.08
43147;BME280;28752;48.266;7.402;2023-06-14T08:31:21;99026.94;;;29.35;26.54
43147;BME280;28752;48.266;7.402;2023-06-14T08:33:46;99021.06;;;29.02;26.98
43147;BME280;28752;48.266;7.402;2023-06-14T08:36:12;99019.22;;;28.51;27.58
43147;BME280;28752;48.266;7.402;2023-06-14T08:38:38;99032.28;;;28.03;28.78
43147;BME280;28752;48.266;7.402;2023-06-14T08:41:05;99029.28;;;28.71;28.08
43147;BME280;28752;48.266;7.402;2023-06-14T08:43:31;99036.28;;;27.69;28.21
43147;BME280;28752;48.266;7.402;2023-06-14T08:46:04;99033.13;;;26.76;30.06
43147;BME280;28752;48.266;7.402;2023-06-14T08:48:31;99023.31;;;27.23;30.01
43147;BME280;28752;48.266;7.402;2023-06-14T08:51:01;99034.69;;;26.67;30.32
43147;BME280;28752;48.266;7.402;2023-06-14T08:53:30;99027.75;;;26.82;30.12
43147;BME280;28752;48.266;7.402;2023-06-14T08:55:58;99022.78;;;26.73;30.12
43147;BME280;28752;48.266;7.402;2023-06-14T08:58:26;99020.22;;;26.99;30.37
43147;BME280;28752;48.266;7.402;2023-06-14T09:00:54;99034.31;;;26.91;30.00
43147;BME280;28752;48.266;7.402;2023-06-14T09:03:21;99040.00;;;26.89;30.02
43147;BME280;28752;48.266;7.402;2023-06-14T09:05:47;99027.91;;;27.18;29.73
43147;BME280;28752;48.266;7.402;2023-06-14T09:08:13;99040.22;;;27.30;29.46
43147;BME280;28752;48.266;7.402;2023-06-14T09:10:38;99041.72;;;27.59;28.22
43147;BME280;28752;48.266;7.402;2023-06-14T09:13:05;99043.78;;;26.83;29.83
43147;BME280;28752;48.266;7.402;2023-06-14T09:15:30;99052.41;;;27.23;29.13
43147;BME280;28752;48.266;7.402;2023-06-14T09:17:56;99053.22;;;27.18;29.85
43147;BME280;28752;48.266;7.402;2023-06-14T09:20:23;99046.53;;;27.41;29.26
43147;BME280;28752;48.266;7.402;2023-06-14T09:22:49;99055.50;;;27.42;28.97
43147;BME280;28752;48.266;7.402;2023-06-14T09:25:15;99041.94;;;26.99;29.29
43147;BME280;28752;48.266;7.402;2023-06-14T09:27:40;99061.44;;;27.34;29.59
43147;BME280;28752;48.266;7.402;2023-06-14T09:30:09;99047.72;;;27.08;29.68
43147;BME280;28752;48.266;7.402;2023-06-14T09:32:38;99054.75;;;27.04;29.52
43147;BME280;28752;48.266;7.402;2023-06-14T09:35:07;99060.44;;;26.65;29.07
43147;BME280;28752;48.266;7.402;2023-06-14T09:37:33;99053.06;;;26.92;28.65
43147;BME280;28752;48.266;7.402;2023-06-14T09:40:00;99048.16;;;26.89;29.07
43147;BME280;28752;48.266;7.402;2023-06-14T09:42:25;99055.38;;;27.21;28.28
43147;BME280;28752;48.266;7.402;2023-06-14T09:44:51;99050.75;;;27.22;28.47
43147;BME280;28752;48.266;7.402;2023-06-14T09:47:17;99060.94;;;27.42;27.94
43147;BME280;28752;48.266;7.402;2023-06-14T09:49:43;99058.50;;;27.45;27.90
43147;BME280;28752;48.266;7.402;2023-06-14T09:52:14;99063.09;;;27.35;27.63
43147;BME280;28752;48.266;7.402;2023-06-14T09:54:41;99060.75;;;27.06;26.20
43147;BME280;28752;48.266;7.402;2023-06-14T09:57:21;99069.00;;;26.79;26.80
43147;BME280;28752;48.266;7.402;2023-06-14T09:59:48;99071.19;;;26.82;26.54
43147;BME280;28752;48.266;7.402;2023-06-14T10:04:58;99065.72;;;27.24;26.67
43147;BME280;28752;48.266;7.402;2023-06-14T10:07:30;99050.91;;;26.94;26.95
43147;BME280;28752;48.266;7.402;2023-06-14T10:09:57;99071.56;;;26.95;27.13
43147;BME280;28752;48.266;7.402;2023-06-14T10:12:22;99058.03;;;27.06;26.73
43147;BME280;28752;48.266;7.402;2023-06-14T10:14:49;99052.94;;;27.20;27.07
43147;BME280;28752;48.266;7.402;2023-06-14T10:17:27;99055.66;;;27.25;27.64
43147;BME280;28752;48.266;7.402;2023-06-14T10:20:10;99052.03;;;27.04;27.10
43147;BME280;28752;48.266;7.402;2023-06-14T10:22:49;99048.44;;;26.93;27.81
43147;BME280;28752;48.266;7.402;2023-06-14T10:25:31;99046.53;;;27.36;27.17
43147;BME280;28752;48.266;7.402;2023-06-14T10:28:23;99046.66;;;27.14;26.12
43147;BME280;28752;48.266;7.402;2023-06-14T10:31:10;99052.53;;;27.48;27.34
43147;BME280;28752;48.266;7.402;2023-06-14T10:33:39;99058.72;;;27.34;27.51
43147;BME280;28752;48.266;7.402;2023-06-14T10:39:17;99038.25;;;27.21;25.55
43147;BME280;28752;48.266;7.402;2023-06-14T10:41:51;99045.28;;;27.11;26.51
43147;BME280;28752;48.266;7.402;2023-06-14T10:46:55;99040.88;;;27.53;26.25
43147;BME280;28752;48.266;7.402;2023-06-14T10:49:45;99041.22;;;27.82;26.90
43147;BME280;28752;48.266;7.402;2023-06-14T10:52:12;99034.88;;;27.51;26.30
43147;BME280;28752;48.266;7.402;2023-06-14T10:55:13;99041.63;;;27.33;26.38
43147;BME280;28752;48.266;7.402;2023-06-14T11:00:05;99040.03;;;27.53;25.62
43147;BME280;28752;48.266;7.402;2023-06-14T11:11:16;99024.50;;;27.43;25.88
43147;BME280;28752;48.266;7.402;2023-06-14T11:13:44;99023.09;;;27.30;25.91
43147;BME280;28752;48.266;7.402;2023-06-14T11:16:14;99033.69;;;27.32;26.01
43147;BME280;28752;48.266;7.402;2023-06-14T11:18:40;99022.34;;;27.40;25.76
43147;BME280;28752;48.266;7.402;2023-06-14T11:21:05;99027.41;;;27.26;25.73
43147;BME280;28752;48.266;7.402;2023-06-14T11:23:31;99028.50;;;27.25;25.95
43147;BME280;28752;48.266;7.402;2023-06-14T11:25:56;99020.47;;;27.45;26.12
43147;BME280;28752;48.266;7.402;2023-06-14T11:28:21;98978.72;;;27.14;25.83
43147;BME280;28752;48.266;7.402;2023-06-14T11:30:49;99009.22;;;27.26;26.11
43147;BME280;28752;48.266;7.402;2023-06-14T11:33:24;99021.75;;;27.33;26.44
43147;BME280;28752;48.266;7.402;2023-06-14T11:35:49;99033.06;;;27.09;26.79
43147;BME280;28752;48.266;7.402;2023-06-14T11:38:16;99025.13;;;27.02;27.30
43147;BME280;28752;48.266;7.402;2023-06-14T11:40:41;99018.50;;;27.36;26.80
43147;BME280;28752;48.266;7.402;2023-06-14T11:43:06;99016.66;;;27.57;26.55
43147;BME280;28752;48.266;7.402;2023-06-14T11:45:32;99017.81;;;27.71;25.75
43147;BME280;28752;48.266;7.402;2023-06-14T11:47:58;99013.38;;;27.50;26.78
43147;BME280;28752;48.266;7.402;2023-06-14T11:50:24;99000.31;;;27.36;26.93
43147;BME280;28752;48.266;7.402;2023-06-14T11:52:57;98998.22;;;27.59;26.83
43147;BME280;28752;48.266;7.402;2023-06-14T11:55:23;98997.81;;;27.29;26.55
43147;BME280;28752;48.266;7.402;2023-06-14T11:57:49;99004.88;;;27.30;26.37
43147;BME280;28752;48.266;7.402;2023-06-14T12:00:15;99006.28;;;27.38;26.10
43147;BME280;28752;48.266;7.402;2023-06-14T12:02:41;99003.03;;;27.36;26.36
43147;BME280;28752;48.266;7.402;2023-06-14T12:05:06;98997.34;;;27.38;26.02
43147;BME280;28752;48.266;7.402;2023-06-14T12:07:36;99008.75;;;27.35;25.98
43147;BME280;28752;48.266;7.402;2023-06-14T12:12:27;99006.88;;;27.56;26.19
43147;BME280;28752;48.266;7.402;2023-06-14T12:14:55;98999.00;;;27.64;25.45
43147;BME280;28752;48.266;7.402;2023-06-14T12:17:23;99016.41;;;27.53;26.43
43147;BME280;28752;48.266;7.402;2023-06-14T12:19:51;98999.28;;;27.58;26.33
43147;BME280;28752;48.266;7.402;2023-06-14T12:22:19;98998.72;;;27.56;26.55
43147;BME280;28752;48.266;7.402;2023-06-14T12:24:45;99003.84;;;27.37;26.14
43147;BME280;28752;48.266;7.402;2023-06-14T12:27:11;98990.91;;;27.01;26.56
43147;BME280;28752;48.266;7.402;2023-06-14T12:29:40;98988.00;;;27.18;26.44
43147;BME280;28752;48.266;7.402;2023-06-14T12:32:06;98999.50;;;27.41;26.52
43147;BME280;28752;48.266;7.402;2023-06-14T12:34:31;98997.28;;;27.33;25.92
43147;BME280;28752;48.266;7.402;2023-06-14T12:36:57;99004.88;;;27.30;26.40
43147;BME280;28752;48.266;7.402;2023-06-14T12:39:22;98992.44;;;27.45;26.44
43147;BME280;28752;48.266;7.402;2023-06-14T12:41:48;98984.88;;;27.68;26.64
43147;BME280;28752;48.266;7.402;2023-06-14T12:44:14;98990.63;;;27.71;26.20
43147;BME280;28752;48.266;7.402;2023-06-14T12:46:43;99000.13;;;27.69;26.17
43147;BME280;28752;48.266;7.402;2023-06-14T12:49:12;98989.50;;;27.72;26.24
43147;BME280;28752;48.266;7.402;2023-06-14T12:51:39;99002.81;;;27.53;26.00
43147;BME280;28752;48.266;7.402;2023-06-14T12:54:05;98999.50;;;27.41;26.07
43147;BME280;28752;48.266;7.402;2023-06-14T12:56:30;99017.16;;;27.43;26.31
43147;BME280;28752;48.266;7.402;2023-06-14T12:58:55;99003.56;;;27.43;26.12
43147;BME280;28752;48.266;7.402;2023-06-14T13:01:21;98997.66;;;27.62;26.40
43147;BME280;28752;48.266;7.402;2023-06-14T13:03:47;99014.75;;;27.57;25.98
43147;BME280;28752;48.266;7.402;2023-06-14T13:06:13;98970.97;;;27.43;25.68
43147;BME280;28752;48.266;7.402;2023-06-14T13:08:38;98999.03;;;27.75;26.56
43147;BME280;28752;48.266;7.402;2023-06-14T13:11:04;99001.50;;;27.76;26.04
43147;BME280;28752;48.266;7.402;2023-06-14T13:13:29;99005.84;;;27.77;26.18
43147;BME280;28752;48.266;7.402;2023-06-14T13:15:54;99003.97;;;27.88;26.08
43147;BME280;28752;48.266;7.402;2023-06-14T13:18:19;98990.06;;;27.79;26.34
43147;BME280;28752;48.266;7.402;2023-06-14T13:20:45;99009.13;;;27.90;26.42
43147;BME280;28752;48.266;7.402;2023-06-14T13:23:11;98982.66;;;27.54;26.73